Time;durP1;ratioP1;P1;durP2;ratioP2;P2;SDS_P1;SDS_P2;PMS_P1;PMS_P2;Temp;Humidity;BMP_temperature;BMP_pressure;BME280_temperature;BME280_humidity;BME280_pressure;Samples;Min_cycle;Max_cycle;Signal;HPM_P1;HPM_P2
2021/04/04 06:16:19;;;;;;;26.58;9.32;;;6.80;99.90;;;;;;3643496;39;20141;-72
2021/04/04 06:19:00;;;;;;;20.45;8.73;;;6.80;99.90;;;;;;3637565;39;20055;-74
2021/04/04 06:21:47;;;;;;;24.00;8.52;;;6.90;99.90;;;;;;3640927;39;20053;-72
2021/04/04 06:24:38;;;;;;;20.17;7.40;;;6.90;99.90;;;;;;3631368;39;20042;-73
2021/04/04 06:27:29;;;;;;;17.30;8.32;;;7.00;99.90;;;;;;3627330;39;20052;-74
2021/04/04 06:30:46;;;;;;;24.30;10.65;;;7.00;99.90;;;;;;3635332;39;20147;-73
2021/04/04 06:33:28;;;;;;;20.65;8.75;;;7.00;99.90;;;;;;3640366;39;20050;-74
2021/04/04 06:36:05;;;;;;;18.35;7.65;;;7.10;99.90;;;;;;3642275;39;20038;-73
2021/04/04 06:38:54;;;;;;;18.40;8.32;;;7.00;99.90;;;;;;3642645;39;20050;-74
2021/04/04 06:41:20;;;;;;;20.58;8.27;;;7.10;99.90;;;;;;3632140;39;20425;-72
2021/04/04 06:44:04;;;;;;;24.67;7.43;;;7.00;99.90;;;;;;3631869;39;20054;-72
2021/04/04 06:46:41;;;;;;;17.58;8.30;;;7.00;99.90;;;;;;3642379;39;20042;-72
2021/04/04 06:49:45;;;;;;;19.02;7.85;;;7.10;99.90;;;;;;3642072;39;20062;-72
2021/04/04 06:52:43;;;;;;;20.00;7.80;;;7.20;99.90;;;;;;3641606;39;20041;-73
2021/04/04 06:55:24;;;;;;;18.52;7.18;;;7.20;99.90;;;;;;3642548;39;20057;-73
2021/04/04 06:57:53;;;;;;;22.38;8.82;;;7.20;99.90;;;;;;3642374;39;20380;-73
2021/04/04 07:00:28;;;;;;;16.42;6.95;;;7.30;99.90;;;;;;3642740;39;20066;-75
2021/04/04 07:02:56;;;;;;;25.08;7.80;;;7.30;99.90;;;;;;3642698;39;20050;-73
2021/04/04 07:05:24;;;;;;;19.58;7.20;;;7.30;99.90;;;;;;3643306;39;20399;-74
2021/04/04 07:08:13;;;;;;;19.77;6.13;;;7.30;99.90;;;;;;3643090;39;20050;-73
2021/04/04 07:10:50;;;;;;;18.42;5.60;;;7.40;99.90;;;;;;3642044;39;20085;-74
2021/04/04 07:13:53;;;;;;;17.60;5.57;;;7.30;99.90;;;;;;3633014;39;20459;-73
2021/04/04 07:16:53;;;;;;;12.40;3.70;;;7.30;99.90;;;;;;3642151;39;20057;-73
2021/04/04 07:19:37;;;;;;;17.85;5.22;;;7.40;99.90;;;;;;3643014;39;20102;-73
2021/04/04 07:22:22;;;;;;;18.60;5.57;;;7.40;99.90;;;;;;3631843;39;20366;-73
2021/04/04 07:25:27;;;;;;;22.95;6.28;;;7.50;99.90;;;;;;3631060;39;20214;-74
2021/04/04 07:28:19;;;;;;;12.13;4.75;;;7.50;99.90;;;;;;3631554;39;20142;-74
2021/04/04 07:30:56;;;;;;;21.52;5.55;;;7.30;99.90;;;;;;3631738;39;20074;-73
2021/04/04 07:33:36;;;;;;;15.27;4.07;;;7.30;99.90;;;;;;3634774;39;20058;-73
2021/04/04 07:36:23;;;;;;;12.02;4.28;;;7.40;99.90;;;;;;3634626;39;20042;-73
2021/04/04 07:39:23;;;;;;;19.13;4.80;;;7.50;99.90;;;;;;3625825;39;20051;-74
2021/04/04 07:42:07;;;;;;;18.63;4.03;;;7.50;99.90;;;;;;3627101;39;20042;-72
2021/04/04 07:44:38;;;;;;;18.25;4.53;;;7.60;99.90;;;;;;3634577;39;20042;-73
2021/04/04 07:47:24;;;;;;;16.98;4.32;;;7.60;99.90;;;;;;3627699;39;20074;-73
2021/04/04 07:50:02;;;;;;;13.32;3.85;;;7.60;99.90;;;;;;3635284;39;20057;-72
2021/04/04 07:52:52;;;;;;;21.20;4.50;;;7.70;99.90;;;;;;3634701;39;20042;-73
2021/04/04 07:55:29;;;;;;;17.02;4.40;;;7.80;99.90;;;;;;3633642;39;20057;-73
2021/04/04 07:58:00;;;;;;;14.65;3.55;;;7.70;99.90;;;;;;3632050;39;20118;-74
2021/04/04 08:00:26;;;;;;;13.95;3.50;;;7.80;99.90;;;;;;3635091;39;20050;-74
2021/04/04 08:03:36;;;;;;;13.90;3.65;;;7.80;99.90;;;;;;3635384;39;20050;-74
2021/04/04 08:06:08;;;;;;;16.60;3.53;;;7.80;99.90;;;;;;3582266;40;20045;-73
2021/04/04 08:08:41;;;;;;;10.65;2.63;;;7.80;99.90;;;;;;3618436;39;20111;-74
2021/04/04 08:11:21;;;;;;;18.55;6.78;;;7.90;99.90;;;;;;3631159;39;20079;-73
2021/04/04 08:14:02;;;;;;;21.20;5.75;;;7.90;99.90;;;;;;3634672;39;20054;-74
2021/04/04 08:16:43;;;;;;;15.35;3.60;;;7.90;99.90;;;;;;3635382;39;20053;-74
2021/04/04 08:19:12;;;;;;;24.83;4.53;;;7.90;99.90;;;;;;3635804;39;20057;-72
2021/04/04 08:21:45;;;;;;;21.25;5.28;;;7.90;99.90;;;;;;3635773;39;20149;-74
2021/04/04 08:24:19;;;;;;;19.85;4.57;;;7.80;99.90;;;;;;3629456;39;20174;-74
2021/04/04 08:26:44;;;;;;;16.33;4.78;;;7.90;99.90;;;;;;3633549;39;20057;-75
2021/04/04 08:29:28;;;;;;;16.13;5.13;;;8.00;99.90;;;;;;3634427;39;20050;-73
2021/04/04 08:32:00;;;;;;;13.15;3.75;;;8.00;99.90;;;;;;3625028;39;20413;-71
2021/04/04 08:34:33;;;;;;;18.70;4.15;;;7.90;99.90;;;;;;3635302;39;20384;-70
2021/04/04 08:37:02;;;;;;;;;;;8.00;99.90;;;;;;3615899;39;20343;-75
2021/04/04 08:39:31;;;;;;;13.40;3.58;;;8.10;99.90;;;;;;3628185;39;20030;-74
2021/04/04 08:42:03;;;;;;;18.20;3.20;;;7.90;99.90;;;;;;3634895;39;20061;-73
2021/04/04 08:44:33;;;;;;;11.80;2.43;;;8.10;99.90;;;;;;3634671;39;20073;-74
2021/04/04 08:47:20;;;;;;;21.92;3.60;;;8.20;99.90;;;;;;3635054;39;20168;-74
2021/04/04 08:49:47;;;;;;;20.20;3.33;;;8.40;99.90;;;;;;3626023;39;20072;-73
2021/04/04 08:52:18;;;;;;;11.02;2.25;;;8.30;99.90;;;;;;3635168;39;20043;-74
2021/04/04 08:54:50;;;;;;;16.27;3.50;;;8.10;99.90;;;;;;3634829;39;20431;-74
2021/04/04 08:57:19;;;;;;;14.27;3.73;;;8.10;99.90;;;;;;3625362;39;20054;-72
2021/04/04 08:59:52;;;;;;;11.15;3.08;;;8.10;99.90;;;;;;3625056;39;20286;-72
2021/04/04 09:02:18;;;;;;;21.23;3.37;;;8.10;99.90;;;;;;3634837;39;20046;-74
2021/04/04 09:04:44;;;;;;;19.20;3.50;;;8.20;99.90;;;;;;3634467;39;20283;-73
2021/04/04 09:07:11;;;;;;;14.27;2.97;;;8.10;99.90;;;;;;3634332;39;20605;-74
2021/04/04 09:09:45;;;;;;;11.65;3.35;;;8.20;99.90;;;;;;3634834;39;20045;-73
2021/04/04 09:12:11;;;;;;;14.70;3.38;;;8.30;99.90;;;;;;3635063;39;20057;-72
2021/04/04 09:14:39;;;;;;;14.63;3.10;;;8.30;99.90;;;;;;3634040;39;20355;-73
2021/04/04 09:17:09;;;;;;;20.33;3.47;;;8.20;99.90;;;;;;3633958;39;20046;-72
2021/04/04 09:19:40;;;;;;;16.08;3.15;;;8.30;99.90;;;;;;3635180;39;20054;-74
2021/04/04 09:22:15;;;;;;;24.80;4.03;;;8.30;99.90;;;;;;3630881;39;20393;-74
2021/04/04 09:24:53;;;;;;;18.00;3.55;;;8.30;99.90;;;;;;3633929;39;20042;-74
2021/04/04 09:27:22;;;;;;;21.02;3.55;;;8.40;99.90;;;;;;3634963;39;20082;-74
2021/04/04 09:29:51;;;;;;;23.35;3.38;;;8.40;99.90;;;;;;3624524;39;20133;-74
2021/04/04 09:32:36;;;;;;;24.75;3.92;;;8.40;99.90;;;;;;3627319;39;20470;-73
2021/04/04 09:35:04;;;;;;;16.77;2.60;;;8.20;99.90;;;;;;3624752;39;20061;-73
2021/04/04 09:37:31;;;;;;;19.27;3.53;;;8.10;99.90;;;;;;3634361;39;20072;-74
2021/04/04 09:39:58;;;;;;;22.00;3.58;;;8.40;99.90;;;;;;3634346;39;20050;-73
2021/04/04 09:42:29;;;;;;;17.33;3.85;;;8.40;99.90;;;;;;3633478;39;20065;-72
2021/04/04 09:45:18;;;;;;;16.35;2.70;;;8.40;99.90;;;;;;3634223;39;20049;-74
2021/04/04 09:47:45;;;;;;;12.68;2.58;;;8.50;99.90;;;;;;3635141;39;20149;-73
2021/04/04 09:50:23;;;;;;;12.00;2.67;;;8.60;99.90;;;;;;3633802;39;20053;-75
2021/04/04 09:52:49;;;;;;;17.73;3.38;;;8.70;99.90;;;;;;3634600;39;20049;-74
2021/04/04 09:55:20;;;;;;;15.85;2.80;;;8.50;99.90;;;;;;3634357;39;20034;-73
2021/04/04 09:58:00;;;;;;;21.55;3.45;;;8.60;99.90;;;;;;3634224;39;20072;-73
2021/04/04 10:00:37;;;;;;;15.40;3.10;;;8.60;99.90;;;;;;3634098;39;20094;-74
2021/04/04 10:03:12;;;;;;;20.58;3.75;;;8.70;99.90;;;;;;3634715;39;20138;-74
2021/04/04 10:05:44;;;;;;;21.75;3.70;;;8.80;99.90;;;;;;3634261;39;20371;-75
2021/04/04 10:08:11;;;;;;;21.25;3.75;;;8.80;99.90;;;;;;3634139;39;20439;-74
2021/04/04 10:10:38;;;;;;;17.83;2.50;;;8.70;99.90;;;;;;3634902;39;20058;-73
2021/04/04 10:13:05;;;;;;;17.92;3.90;;;8.90;99.90;;;;;;3633212;39;20050;-73
2021/04/04 10:15:44;;;;;;;18.88;3.10;;;9.00;99.90;;;;;;3634711;39;20050;-74
2021/04/04 10:18:10;;;;;;;28.40;3.40;;;9.00;99.90;;;;;;3634559;39;20054;-73
2021/04/04 10:20:39;;;;;;;20.42;2.85;;;8.90;99.90;;;;;;3634590;39;20049;-73
2021/04/04 10:23:07;;;;;;;12.50;2.65;;;9.00;99.90;;;;;;3634145;39;20141;-79
2021/04/04 10:25:33;;;;;;;12.23;3.50;;;9.00;99.90;;;;;;3623927;39;20105;-75
2021/04/04 10:28:05;;;;;;;16.83;3.25;;;8.90;99.90;;;;;;3633610;39;20054;-75
2021/04/04 10:30:31;;;;;;;15.98;3.47;;;9.10;99.90;;;;;;3634273;39;20050;-76
2021/04/04 10:33:24;;;;;;;16.25;3.75;;;8.90;99.90;;;;;;3623163;39;20038;-75
2021/04/04 10:35:52;;;;;;;15.57;3.15;;;9.00;99.90;;;;;;3633782;39;20054;-73
2021/04/04 10:38:24;;;;;;;15.10;2.78;;;9.20;99.90;;;;;;3634180;39;20335;-75
2021/04/04 10:40:58;;;;;;;8.50;2.70;;;9.10;99.90;;;;;;3633860;39;20062;-74
2021/04/04 10:43:42;;;;;;;15.95;4.57;;;9.30;99.90;;;;;;3633200;39;20113;-74
2021/04/04 10:46:15;;;;;;;17.83;3.53;;;9.50;99.90;;;;;;3633262;39;20134;-74
2021/04/04 10:48:42;;;;;;;;;;;9.50;99.90;;;;;;3634391;39;20132;-73
2021/04/04 10:51:10;;;;;;;14.27;3.55;;;9.40;99.90;;;;;;3633700;39;20022;-74
2021/04/04 10:53:37;;;;;;;15.02;3.42;;;9.30;99.90;;;;;;3624511;39;20073;-74
2021/04/04 10:56:04;;;;;;;15.48;3.65;;;9.50;99.90;;;;;;3633713;39;20126;-74
2021/04/04 10:58:30;;;;;;;16.35;4.03;;;9.50;99.90;;;;;;3633306;39;20046;-73
2021/04/04 11:01:00;;;;;;;15.40;3.60;;;9.40;99.90;;;;;;3624127;39;20054;-74
2021/04/04 11:03:27;;;;;;;14.93;3.17;;;9.50;99.90;;;;;;3636011;39;20046;-74
2021/04/04 11:05:53;;;;;;;18.13;3.75;;;9.50;99.90;;;;;;3634593;39;20080;-74
2021/04/04 11:08:19;;;;;;;13.10;3.42;;;9.40;99.90;;;;;;3635250;39;20223;-73
2021/04/04 11:10:46;;;;;;;16.75;4.13;;;9.50;99.90;;;;;;3635604;39;20319;-73
2021/04/04 11:13:14;;;;;;;15.50;3.78;;;9.30;99.90;;;;;;3623458;39;20050;-74
2021/04/04 11:16:01;;;;;;;16.17;4.22;;;9.50;99.90;;;;;;3635620;39;20520;-74
2021/04/04 11:18:39;;;;;;;14.27;3.60;;;9.30;99.90;;;;;;3634906;39;20058;-74
2021/04/04 11:21:09;;;;;;;17.67;3.90;;;9.40;99.90;;;;;;3635038;39;20324;-74
2021/04/04 11:23:37;;;;;;;21.42;4.15;;;9.40;99.90;;;;;;3635066;39;20062;-74
2021/04/04 11:26:48;;;;;;;21.20;4.38;;;9.50;99.90;;;;;;3631965;39;20050;-73
2021/04/04 11:29:24;;;;;;;17.38;3.80;;;9.50;99.90;;;;;;3581146;40;20084;-74
2021/04/04 11:32:16;;;;;;;14.90;3.72;;;9.50;99.90;;;;;;3582379;40;20052;-73
2021/04/04 11:34:43;;;;;;;16.20;3.85;;;9.30;99.90;;;;;;3612858;39;20312;-74
2021/04/04 11:37:11;;;;;;;14.60;4.03;;;9.40;99.90;;;;;;3625587;39;20054;-73
2021/04/04 11:39:38;;;;;;;18.17;3.65;;;9.30;99.90;;;;;;3635574;39;20395;-75
2021/04/04 11:42:05;;;;;;;21.58;5.13;;;9.40;99.90;;;;;;3634292;39;20046;-74
2021/04/04 11:44:39;;;;;;;12.77;3.85;;;9.60;99.90;;;;;;3626113;39;20130;-74
2021/04/04 11:47:17;;;;;;;10.55;2.78;;;9.70;99.90;;;;;;3634905;39;20066;-74
2021/04/04 11:50:01;;;;;;;13.77;4.00;;;9.70;99.90;;;;;;3625403;39;20060;-73
2021/04/04 11:52:28;;;;;;;12.48;3.00;;;9.70;99.90;;;;;;3635348;39;20050;-75
2021/04/04 11:54:55;;;;;;;13.82;3.47;;;9.60;99.90;;;;;;3635383;39;20050;-74
2021/04/04 11:57:32;;;;;;;13.95;3.35;;;9.70;99.90;;;;;;3635705;39;20053;-72
2021/04/04 12:00:08;;;;;;;19.98;6.00;;;9.70;99.90;;;;;;3635591;39;20058;-72
2021/04/04 12:02:35;;;;;;;12.40;3.25;;;9.90;99.90;;;;;;3635342;39;20034;-73
2021/04/04 12:05:08;;;;;;;11.50;3.38;;;9.40;99.90;;;;;;3634612;39;20136;-74
2021/04/04 12:07:44;;;;;;;11.68;3.13;;;9.70;99.90;;;;;;3635016;39;20129;-75
2021/04/04 12:10:12;;;;;;;14.52;3.88;;;9.70;99.90;;;;;;3635391;39;20046;-73
2021/04/04 12:12:38;;;;;;;16.42;3.63;;;9.80;99.90;;;;;;3625021;39;20080;-74
2021/04/04 12:15:05;;;;;;;16.20;3.90;;;9.50;99.90;;;;;;3634587;39;20330;-73
2021/04/04 12:17:32;;;;;;;12.20;3.47;;;9.90;99.90;;;;;;3625774;39;20058;-75
2021/04/04 12:19:59;;;;;;;18.48;4.78;;;10.00;99.90;;;;;;3635182;39;20456;-73
2021/04/04 12:22:42;;;;;;;16.27;3.90;;;10.00;99.90;;;;;;3635365;39;20062;-75
2021/04/04 12:25:11;;;;;;;13.90;4.50;;;10.10;99.90;;;;;;3629387;39;20051;-73
2021/04/04 12:27:39;;;;;;;19.02;4.85;;;10.00;99.90;;;;;;3630052;39;20056;-73
2021/04/04 12:30:05;;;;;;;17.05;5.00;;;10.10;99.90;;;;;;3634337;39;20072;-73
2021/04/04 12:32:33;;;;;;;24.63;5.35;;;10.10;99.90;;;;;;3634625;39;20050;-73
2021/04/04 12:35:08;;;;;;;12.65;4.93;;;10.10;99.90;;;;;;3634807;39;20046;-74
2021/04/04 12:37:38;;;;;;;14.98;5.90;;;9.90;99.90;;;;;;3633291;39;20054;-75
2021/04/04 12:40:07;;;;;;;18.65;6.28;;;9.90;99.90;;;;;;3630387;39;20300;-73
2021/04/04 12:42:34;;;;;;;18.73;6.97;;;10.10;99.90;;;;;;3628792;39;20046;-75
2021/04/04 12:45:11;;;;;;;17.08;6.70;;;9.90;99.90;;;;;;3633900;39;20054;-73
2021/04/04 12:47:38;;;;;;;17.45;7.13;;;9.70;99.90;;;;;;3635110;39;20048;-75
2021/04/04 12:50:13;;;;;;;13.48;7.47;;;9.80;99.90;;;;;;3635195;39;20411;-72
2021/04/04 12:52:43;;;;;;;13.93;6.38;;;9.90;99.90;;;;;;3633074;39;20240;-73
2021/04/04 12:55:35;;;;;;;12.63;6.68;;;10.00;99.90;;;;;;3634372;39;20050;-75
2021/04/04 12:58:08;;;;;;;17.67;8.52;;;9.90;99.90;;;;;;3628768;39;20049;-72
2021/04/04 13:00:42;;;;;;;17.25;8.15;;;9.90;99.90;;;;;;3625999;39;20043;-75
2021/04/04 13:03:08;;;;;;;19.08;8.45;;;9.80;99.90;;;;;;3633285;39;20050;-74
2021/04/04 13:05:54;;;;;;;20.88;8.75;;;10.10;99.90;;;;;;3634642;39;20046;-74
2021/04/04 13:08:28;;;;;;;13.20;7.70;;;9.90;99.90;;;;;;3634234;39;20084;-76
2021/04/04 13:11:03;;;;;;;17.88;8.43;;;9.60;99.90;;;;;;3634412;39;20069;-73
2021/04/04 13:13:33;;;;;;;21.25;9.20;;;9.90;99.90;;;;;;3634052;39;20269;-74
2021/04/04 13:16:00;;;;;;;21.70;9.77;;;9.60;99.90;;;;;;3634359;39;20054;-75
2021/04/04 13:18:33;;;;;;;21.38;9.45;;;9.40;99.90;;;;;;3634775;39;20058;-74
2021/04/04 13:21:05;;;;;;;;;;;9.70;99.90;;;;;;3635324;39;20322;-74
2021/04/04 13:23:38;;;;;;;22.75;8.85;;;9.70;99.90;;;;;;3633636;39;19941;-77
2021/04/04 13:26:06;;;;;;;18.33;8.88;;;9.70;99.90;;;;;;3633346;39;20375;-74
2021/04/04 13:28:35;;;;;;;19.83;9.23;;;9.70;99.90;;;;;;3633649;39;20026;-72
2021/04/04 13:31:24;;;;;;;17.45;9.25;;;9.80;99.90;;;;;;3625304;39;20053;-74
2021/04/04 13:34:03;;;;;;;19.98;11.35;;;9.70;99.90;;;;;;3633952;39;20340;-75
2021/04/04 13:36:29;;;;;;;16.17;9.07;;;9.50;99.90;;;;;;3632712;39;20057;-74
2021/04/04 13:38:56;;;;;;;17.55;10.25;;;9.60;99.90;;;;;;3633298;39;20311;-74
2021/04/04 13:41:24;;;;;;;20.30;10.45;;;9.80;99.90;;;;;;3634221;39;20050;-73
2021/04/04 13:43:56;;;;;;;18.20;9.32;;;9.90;99.90;;;;;;3633942;39;20046;-74
2021/04/04 13:46:29;;;;;;;18.47;10.87;;;10.00;99.90;;;;;;3633503;39;20080;-74
2021/04/04 13:48:57;;;;;;;18.73;10.15;;;9.90;99.90;;;;;;3634250;39;20054;-74
2021/04/04 13:51:23;;;;;;;23.77;10.80;;;10.20;99.90;;;;;;3633865;39;20035;-74
2021/04/04 13:54:02;;;;;;;15.70;9.43;;;10.00;99.90;;;;;;3623424;39;20050;-74
2021/04/04 13:56:56;;;;;;;24.65;10.43;;;10.10;99.90;;;;;;3629096;39;20107;-75
2021/04/04 13:59:27;;;;;;;16.95;10.15;;;10.00;99.90;;;;;;3628210;39;20050;-75
2021/04/04 14:02:04;;;;;;;18.02;9.90;;;10.20;99.90;;;;;;3633400;39;20324;-71
2021/04/04 14:04:36;;;;;;;20.88;9.27;;;10.20;99.90;;;;;;3633270;39;20049;-73
2021/04/04 14:07:10;;;;;;;16.00;9.23;;;10.40;99.90;;;;;;3631467;39;20054;-76
2021/04/04 14:09:37;;;;;;;19.05;9.77;;;10.30;99.90;;;;;;3633963;39;20042;-74
2021/04/04 14:12:05;;;;;;;16.70;9.93;;;10.50;99.90;;;;;;3633764;39;20078;-74
2021/04/04 14:14:32;;;;;;;18.83;9.20;;;10.30;99.90;;;;;;3629318;39;20027;-76
2021/04/04 14:17:00;;;;;;;17.50;9.20;;;10.40;99.90;;;;;;3627722;39;20053;-73
2021/04/04 14:19:26;;;;;;;18.58;8.95;;;10.30;99.90;;;;;;3622602;39;20039;-73
2021/04/04 14:21:53;;;;;;;21.13;8.90;;;10.20;99.90;;;;;;3629071;39;20416;-74
2021/04/04 14:24:18;;;;;;;15.40;8.15;;;10.20;99.90;;;;;;3631407;39;20050;-75
2021/04/04 14:26:45;;;;;;;14.50;7.05;;;10.10;99.90;;;;;;3631810;39;20391;-73
2021/04/04 14:29:12;;;;;;;10.57;6.75;;;10.30;99.90;;;;;;3633310;39;20126;-74
2021/04/04 14:31:38;;;;;;;12.18;7.82;;;10.30;99.90;;;;;;3633597;39;20046;-75
2021/04/04 14:34:04;;;;;;;19.55;8.43;;;10.20;99.90;;;;;;3633273;39;20133;-73
2021/04/04 14:36:30;;;;;;;12.98;8.02;;;10.30;99.90;;;;;;3633457;39;20054;-74
2021/04/04 14:38:55;;;;;;;21.17;9.45;;;10.00;99.90;;;;;;3625168;39;20065;-75
2021/04/04 14:41:21;;;;;;;14.70;7.85;;;9.90;99.90;;;;;;3636477;39;20058;-75
2021/04/04 14:46:23;;;;;;;17.83;8.55;;;9.80;99.90;;;;;;3635729;39;20066;-73
2021/04/04 14:48:49;;;;;;;14.10;6.85;;;9.00;99.90;;;;;;3634149;39;20079;-73
2021/04/04 14:51:15;;;;;;;19.38;7.53;;;9.50;99.90;;;;;;3633259;39;20917;-74
2021/04/04 14:53:40;;;;;;;18.77;7.05;;;9.70;99.90;;;;;;3634636;39;20050;-74
2021/04/04 14:56:08;;;;;;;20.20;7.30;;;9.70;99.90;;;;;;3632094;39;20046;-74
2021/04/04 14:58:34;;;;;;;15.15;7.45;;;9.90;99.90;;;;;;3626925;39;20050;-74
2021/04/04 15:01:01;;;;;;;18.30;7.50;;;9.80;99.90;;;;;;3635889;39;20054;-73
2021/04/04 15:03:27;;;;;;;13.55;7.00;;;10.00;99.90;;;;;;3631866;39;20050;-74
2021/04/04 15:05:53;;;;;;;17.23;7.18;;;10.00;99.90;;;;;;3630296;39;20054;-73
2021/04/04 15:08:20;;;;;;;15.77;6.82;;;10.00;99.90;;;;;;3627596;39;20057;-75
2021/04/04 15:10:47;;;;;;;20.02;7.40;;;10.10;99.90;;;;;;3636268;39;20060;-74
2021/04/04 15:13:14;;;;;;;17.35;8.10;;;10.00;99.90;;;;;;3629909;39;20061;-74
2021/04/04 15:15:43;;;;;;;18.05;7.93;;;9.50;99.90;;;;;;3634813;39;20045;-73
2021/04/04 15:18:09;;;;;;;15.60;6.40;;;9.70;99.90;;;;;;3634280;39;20289;-73
2021/04/04 15:20:35;;;;;;;16.20;6.72;;;9.70;99.90;;;;;;3625361;39;20055;-74
2021/04/04 15:23:03;;;;;;;16.92;7.40;;;9.70;99.90;;;;;;3634235;39;20416;-74
2021/04/04 15:25:29;;;;;;;18.20;7.00;;;9.80;99.90;;;;;;3629158;39;20455;-75
2021/04/04 15:27:55;;;;;;;14.23;7.30;;;9.70;99.90;;;;;;3634835;39;20395;-72
2021/04/04 15:30:33;;;;;;;22.67;8.50;;;9.00;99.90;;;;;;3635598;39;20149;-72
2021/04/04 15:33:05;;;;;;;13.98;8.55;;;9.10;99.90;;;;;;3635647;39;20046;-74
2021/04/04 15:35:33;;;;;;;20.73;8.00;;;9.30;99.90;;;;;;3634008;39;20151;-74
2021/04/04 15:37:59;;;;;;;14.43;7.97;;;9.50;99.90;;;;;;3632932;39;20053;-74
2021/04/04 15:40:26;;;;;;;14.80;8.40;;;9.50;99.90;;;;;;3631638;39;20054;-74
2021/04/04 15:42:52;;;;;;;16.67;8.73;;;8.80;99.90;;;;;;3634356;39;20114;-76
2021/04/04 15:45:22;;;;;;;19.25;8.93;;;8.80;99.90;;;;;;3635417;39;20054;-74
2021/04/04 15:47:50;;;;;;;17.73;8.48;;;9.00;99.90;;;;;;3636326;39;20061;-74
2021/04/04 15:50:18;;;;;;;16.63;8.05;;;8.90;99.90;;;;;;3628175;39;20114;-74
2021/04/04 15:52:44;;;;;;;20.95;7.90;;;9.00;99.90;;;;;;3634537;39;20049;-73
2021/04/04 15:55:11;;;;;;;15.55;7.05;;;8.80;99.90;;;;;;3633395;39;20355;-74
2021/04/04 15:57:37;;;;;;;16.33;8.27;;;8.80;99.90;;;;;;3634570;39;20391;-73
2021/04/04 16:00:06;;;;;;;21.65;7.50;;;8.70;99.90;;;;;;3635720;39;20058;-74
2021/04/04 16:02:31;;;;;;;15.02;8.10;;;9.00;99.90;;;;;;3634968;39;20062;-74
2021/04/04 16:04:57;;;;;;;20.17;8.07;;;8.80;99.90;;;;;;3632071;39;20078;-74
2021/04/04 16:07:22;;;;;;;13.95;6.95;;;9.10;99.90;;;;;;3635633;39;20057;-74
2021/04/04 16:09:49;;;;;;;18.75;9.35;;;8.80;99.90;;;;;;3634958;39;20134;-72
2021/04/04 16:12:15;;;;;;;17.55;7.38;;;8.90;99.90;;;;;;3627171;39;20047;-74
2021/04/04 16:14:40;;;;;;;20.77;8.38;;;8.60;99.90;;;;;;3630925;39;20081;-73
2021/04/04 16:17:07;;;;;;;16.67;6.90;;;8.30;99.90;;;;;;3630754;39;20050;-74
2021/04/04 16:19:33;;;;;;;16.90;6.63;;;8.00;99.90;;;;;;3634688;39;20422;-73
2021/04/04 16:21:58;;;;;;;20.05;7.60;;;8.10;99.90;;;;;;3631666;39;20070;-73
2021/04/04 16:24:24;;;;;;;16.52;7.10;;;8.20;99.90;;;;;;3630023;39;20061;-74
2021/04/04 16:26:50;;;;;;;20.77;7.03;;;8.10;99.90;;;;;;3634399;39;20058;-74
2021/04/04 16:29:16;;;;;;;17.05;7.20;;;8.20;99.90;;;;;;3634869;39;20106;-74
2021/04/04 16:31:41;;;;;;;14.98;6.95;;;8.00;99.90;;;;;;3634720;39;20058;-75
2021/04/04 16:34:07;;;;;;;20.38;8.27;;;8.00;99.90;;;;;;3632871;39;20130;-75
2021/04/04 16:36:35;;;;;;;16.50;7.63;;;7.80;99.90;;;;;;3628088;39;20042;-74
2021/04/04 16:39:00;;;;;;;15.70;7.65;;;8.10;99.90;;;;;;3629156;39;20130;-74
2021/04/04 16:41:26;;;;;;;19.08;7.80;;;8.20;99.90;;;;;;3629083;39;20058;-76
2021/04/04 16:43:51;;;;;;;20.73;8.00;;;8.20;99.90;;;;;;3628182;39;20196;-73
2021/04/04 16:46:17;;;;;;;19.38;7.43;;;8.50;99.90;;;;;;3629261;39;20042;-74
2021/04/04 16:48:43;;;;;;;21.77;7.28;;;8.50;99.90;;;;;;3629227;39;20049;-73
2021/04/04 16:51:08;;;;;;;18.73;6.88;;;8.60;99.90;;;;;;3629932;39;20050;-75
2021/04/04 16:53:34;;;;;;;17.35;7.22;;;8.60;99.90;;;;;;3629750;39;20054;-74
2021/04/04 16:55:59;;;;;;;18.63;7.78;;;8.30;99.90;;;;;;3626874;39;20305;-72
2021/04/04 16:58:26;;;;;;;16.45;6.20;;;8.40;99.90;;;;;;3634218;39;20355;-75
2021/04/04 17:00:52;;;;;;;18.00;9.05;;;8.40;99.90;;;;;;3635272;39;20050;-73
2021/04/04 17:03:18;;;;;;;17.90;7.50;;;8.20;99.90;;;;;;3634753;39;20052;-74
2021/04/04 17:05:51;;;;;;;17.23;8.00;;;7.80;99.90;;;;;;3633334;39;20050;-75
2021/04/04 17:08:21;;;;;;;16.42;7.97;;;8.00;99.90;;;;;;3632827;39;20076;-73
2021/04/04 17:10:49;;;;;;;17.15;6.65;;;7.90;99.90;;;;;;3623269;39;20072;-75
2021/04/04 17:13:15;;;;;;;16.75;7.72;;;7.80;99.90;;;;;;3633917;39;20053;-75
2021/04/04 17:15:41;;;;;;;15.23;6.63;;;7.90;99.90;;;;;;3634782;39;20108;-75
2021/04/04 17:18:07;;;;;;;20.75;6.50;;;7.80;99.90;;;;;;3634899;39;20095;-74
2021/04/04 17:20:33;;;;;;;17.45;6.93;;;7.50;99.90;;;;;;3625056;39;20298;-73
2021/04/04 17:22:59;;;;;;;17.90;7.38;;;7.60;99.90;;;;;;3633653;39;20050;-75
2021/04/04 17:25:25;;;;;;;18.75;5.85;;;7.40;99.90;;;;;;3635083;39;20045;-74
2021/04/04 17:27:51;;;;;;;16.73;6.38;;;7.20;99.90;;;;;;3635104;39;20053;-73
2021/04/04 17:30:23;;;;;;;16.15;6.68;;;7.40;99.90;;;;;;3635720;39;20054;-74
2021/04/04 17:32:54;;;;;;;17.30;6.33;;;7.20;99.90;;;;;;3635922;39;20053;-75
2021/04/04 17:35:24;;;;;;;20.08;6.22;;;7.40;99.90;;;;;;3635375;39;20116;-74
2021/04/04 17:37:50;;;;;;;16.75;6.40;;;7.30;99.90;;;;;;3635879;39;20072;-74
2021/04/04 17:40:17;;;;;;;17.85;6.68;;;7.10;99.90;;;;;;3635195;39;20766;-74
2021/04/04 17:42:43;;;;;;;14.52;5.47;;;7.00;99.90;;;;;;3635066;39;20431;-74
2021/04/04 17:45:10;;;;;;;14.73;6.30;;;7.10;99.90;;;;;;3635065;39;20423;-75
2021/04/04 17:47:36;;;;;;;17.83;6.78;;;7.00;99.90;;;;;;3634892;39;20042;-75
2021/04/04 17:50:03;;;;;;;13.88;6.35;;;6.90;99.90;;;;;;3624860;39;20134;-74
2021/04/04 17:52:29;;;;;;;18.75;6.32;;;6.90;99.90;;;;;;3633532;39;20074;-74
2021/04/04 17:54:57;;;;;;;15.35;6.55;;;6.70;99.90;;;;;;3634892;39;20050;-73
2021/04/04 17:57:23;;;;;;;13.30;6.85;;;6.60;99.90;;;;;;3633925;39;20053;-74
2021/04/04 17:59:49;;;;;;;17.73;7.25;;;6.50;99.90;;;;;;3635095;39;20050;-75
2021/04/04 18:02:15;;;;;;;17.83;7.40;;;6.50;99.90;;;;;;3632050;39;20046;-74
2021/04/04 18:04:43;;;;;;;20.85;7.05;;;6.50;99.90;;;;;;3634959;39;20078;-74
2021/04/04 18:12:19;;;;;;;23.77;7.38;;;6.30;99.90;;;;;;3632555;39;20399;-73
2021/04/04 18:14:44;;;;;;;21.60;7.15;;;6.20;99.90;;;;;;3635441;39;20111;-74
2021/04/04 18:17:11;;;;;;;18.83;6.88;;;6.20;99.90;;;;;;3634403;39;20138;-75
2021/04/04 18:19:36;;;;;;;17.17;7.07;;;6.10;99.90;;;;;;3635510;39;20110;-75
2021/04/04 18:22:04;;;;;;;14.23;6.70;;;6.10;99.90;;;;;;3633512;39;20403;-73
2021/04/04 18:24:30;;;;;;;12.38;6.43;;;6.00;99.90;;;;;;3634208;39;20066;-74
2021/04/04 18:26:55;;;;;;;15.70;7.15;;;6.10;99.90;;;;;;3633983;39;20157;-74
2021/04/04 18:29:23;;;;;;;17.40;7.18;;;6.00;99.90;;;;;;3634923;39;20077;-76
2021/04/04 18:31:50;;;;;;;16.48;6.93;;;6.00;99.90;;;;;;3624980;39;20388;-76
2021/04/04 18:34:15;;;;;;;20.50;8.65;;;6.00;99.90;;;;;;3634380;39;20066;-73
2021/04/04 18:36:41;;;;;;;15.25;7.65;;;6.00;99.90;;;;;;3633942;39;20135;-75
2021/04/04 18:39:07;;;;;;;19.23;6.95;;;5.90;99.90;;;;;;3633793;39;20042;-74
2021/04/04 18:41:34;;;;;;;17.27;8.07;;;6.00;99.90;;;;;;3633425;39;20312;-75
2021/04/04 18:44:00;;;;;;;14.95;7.57;;;6.00;99.90;;;;;;3624518;39;20042;-74
2021/04/04 18:46:26;;;;;;;18.80;8.68;;;5.90;99.90;;;;;;3633972;39;20148;-75
2021/04/04 18:48:52;;;;;;;23.75;8.70;;;5.90;99.90;;;;;;3633876;39;20050;-74
2021/04/04 18:51:18;;;;;;;18.73;9.63;;;5.90;99.90;;;;;;3634394;39;20422;-75
2021/04/04 18:53:44;;;;;;;17.67;8.45;;;5.90;99.90;;;;;;3632329;39;20046;-74
2021/04/04 18:56:09;;;;;;;19.45;8.88;;;5.90;99.90;;;;;;3632649;39;20046;-75
2021/04/04 18:58:35;;;;;;;21.20;9.20;;;5.80;99.90;;;;;;3634284;39;20057;-74
2021/04/04 19:01:01;;;;;;;24.38;9.75;;;5.80;99.90;;;;;;3633452;39;20403;-74
2021/04/04 19:03:26;;;;;;;19.75;8.80;;;5.80;99.90;;;;;;3634914;39;20312;-73
2021/04/04 19:05:54;;;;;;;18.17;7.68;;;5.70;99.90;;;;;;3633526;39;20047;-74
2021/04/04 19:08:20;;;;;;;14.75;7.13;;;5.70;99.90;;;;;;3633255;39;20050;-75
2021/04/04 19:10:58;;;;;;;14.75;7.00;;;5.70;99.90;;;;;;3634868;39;20098;-74
2021/04/04 19:13:24;;;;;;;13.20;7.30;;;5.70;99.90;;;;;;3633850;39;20050;-73
2021/04/04 19:15:50;;;;;;;17.08;7.97;;;5.70;99.90;;;;;;3634148;39;20039;-76
2021/04/04 19:18:15;;;;;;;16.00;7.93;;;5.70;99.90;;;;;;3634745;39;20050;-75
2021/04/04 19:20:41;;;;;;;20.77;7.30;;;5.70;99.90;;;;;;3633622;39;20050;-74
2021/04/04 19:23:06;;;;;;;27.38;9.32;;;5.70;99.90;;;;;;3634574;39;20114;-74
2021/04/04 19:25:32;;;;;;;17.60;8.15;;;5.70;99.90;;;;;;3636948;39;22361;-74
2021/04/04 19:27:58;;;;;;;22.75;8.00;;;5.70;99.90;;;;;;3635404;39;20094;-74
2021/04/04 19:30:24;;;;;;;27.55;8.27;;;5.70;99.90;;;;;;3635944;39;20053;-74